sensor_id;sensor_type;location;lat;lon;timestamp;P1;durP1;ratioP1;P2;durP2;ratioP2
75135;SDS011;63707;52.212;9.540;2024-03-02T00:00:18;17.23;;;8.98;;
75135;SDS011;63707;52.212;9.540;2024-03-02T00:02:46;22.65;;;11.77;;
75135;SDS011;63707;52.212;9.540;2024-03-02T00:05:13;17.58;;;9.98;;
75135;SDS011;63707;52.212;9.540;2024-03-02T00:07:40;18.25;;;10.18;;
75135;SDS011;63707;52.212;9.540;2024-03-02T00:10:08;15.68;;;9.30;;
75135;SDS011;63707;52.212;9.540;2024-03-02T00:12:37;16.50;;;9.55;;
75135;SDS011;63707;52.212;9.540;2024-03-02T00:15:06;16.77;;;9.00;;
75135;SDS011;63707;52.212;9.540;2024-03-02T00:17:52;17.67;;;9.52;;
75135;SDS011;63707;52.212;9.540;2024-03-02T00:20:18;16.45;;;9.25;;
75135;SDS011;63707;52.212;9.540;2024-03-02T00:22:47;15.73;;;9.20;;
75135;SDS011;63707;52.212;9.540;2024-03-02T00:25:13;16.02;;;9.48;;
75135;SDS011;63707;52.212;9.540;2024-03-02T00:27:39;18.90;;;9.55;;
75135;SDS011;63707;52.212;9.540;2024-03-02T00:30:07;15.43;;;9.15;;
75135;SDS011;63707;52.212;9.540;2024-03-02T00:33:01;15.38;;;9.20;;
75135;SDS011;63707;52.212;9.540;2024-03-02T00:35:27;16.70;;;9.55;;
75135;SDS011;63707;52.212;9.540;2024-03-02T00:37:52;16.90;;;9.85;;
75135;SDS011;63707;52.212;9.540;2024-03-02T00:40:19;16.92;;;9.85;;
75135;SDS011;63707;52.212;9.540;2024-03-02T00:42:45;17.00;;;9.93;;
75135;SDS011;63707;52.212;9.540;2024-03-02T00:45:12;17.10;;;9.88;;
75135;SDS011;63707;52.212;9.540;2024-03-02T00:47:38;15.60;;;9.35;;
75135;SDS011;63707;52.212;9.540;2024-03-02T00:50:04;14.70;;;9.15;;
75135;SDS011;63707;52.212;9.540;2024-03-02T00:52:31;16.13;;;9.80;;
75135;SDS011;63707;52.212;9.540;2024-03-02T00:54:58;13.57;;;8.75;;
75135;SDS011;63707;52.212;9.540;2024-03-02T00:57:24;13.50;;;8.82;;
75135;SDS011;63707;52.212;9.540;2024-03-02T00:59:51;16.73;;;9.35;;
75135;SDS011;63707;52.212;9.540;2024-03-02T01:02:17;13.45;;;8.23;;
75135;SDS011;63707;52.212;9.540;2024-03-02T01:04:45;13.10;;;8.35;;
75135;SDS011;63707;52.212;9.540;2024-03-02T01:07:10;15.57;;;9.15;;
75135;SDS011;63707;52.212;9.540;2024-03-02T01:09:36;16.75;;;8.88;;
75135;SDS011;63707;52.212;9.540;2024-03-02T01:12:01;15.32;;;8.82;;
75135;SDS011;63707;52.212;9.540;2024-03-02T01:14:27;15.35;;;8.75;;
75135;SDS011;63707;52.212;9.540;2024-03-02T01:16:53;14.02;;;8.20;;
75135;SDS011;63707;52.212;9.540;2024-03-02T01:19:20;17.02;;;8.70;;
75135;SDS011;63707;52.212;9.540;2024-03-02T01:21:46;16.00;;;9.68;;
75135;SDS011;63707;52.212;9.540;2024-03-02T01:24:11;17.17;;;8.88;;
75135;SDS011;63707;52.212;9.540;2024-03-02T01:26:38;16.35;;;9.90;;
75135;SDS011;63707;52.212;9.540;2024-03-02T01:29:03;17.48;;;9.05;;
75135;SDS011;63707;52.212;9.540;2024-03-02T01:31:29;17.40;;;9.68;;
75135;SDS011;63707;52.212;9.540;2024-03-02T01:33:54;21.52;;;11.07;;
75135;SDS011;63707;52.212;9.540;2024-03-02T01:36:21;19.95;;;10.80;;
75135;SDS011;63707;52.212;9.540;2024-03-02T01:38:47;16.05;;;9.65;;
75135;SDS011;63707;52.212;9.540;2024-03-02T01:41:12;17.85;;;10.70;;
75135;SDS011;63707;52.212;9.540;2024-03-02T01:43:38;16.80;;;9.63;;
75135;SDS011;63707;52.212;9.540;2024-03-02T01:46:03;16.48;;;9.32;;
75135;SDS011;63707;52.212;9.540;2024-03-02T01:48:29;17.48;;;9.85;;
75135;SDS011;63707;52.212;9.540;2024-03-02T01:50:54;17.88;;;10.05;;
75135;SDS011;63707;52.212;9.540;2024-03-02T01:53:21;17.05;;;10.32;;
75135;SDS011;63707;52.212;9.540;2024-03-02T01:55:47;17.08;;;10.10;;
75135;SDS011;63707;52.212;9.540;2024-03-02T01:58:13;19.70;;;10.25;;
75135;SDS011;63707;52.212;9.540;2024-03-02T02:00:38;19.48;;;10.45;;
75135;SDS011;63707;52.212;9.540;2024-03-02T02:03:04;17.45;;;10.48;;
75135;SDS011;63707;52.212;9.540;2024-03-02T02:05:29;16.55;;;10.18;;
75135;SDS011;63707;52.212;9.540;2024-03-02T02:07:55;18.70;;;10.27;;
75135;SDS011;63707;52.212;9.540;2024-03-02T02:10:22;19.13;;;10.35;;
75135;SDS011;63707;52.212;9.540;2024-03-02T02:12:47;16.83;;;10.75;;
75135;SDS011;63707;52.212;9.540;2024-03-02T02:15:22;22.75;;;11.65;;
75135;SDS011;63707;52.212;9.540;2024-03-02T02:17:52;18.58;;;10.60;;
75135;SDS011;63707;52.212;9.540;2024-03-02T02:20:17;19.55;;;11.00;;
75135;SDS011;63707;52.212;9.540;2024-03-02T02:22:54;17.10;;;9.98;;
75135;SDS011;63707;52.212;9.540;2024-03-02T02:25:21;19.40;;;11.30;;
75135;SDS011;63707;52.212;9.540;2024-03-02T02:27:46;21.48;;;11.20;;
75135;SDS011;63707;52.212;9.540;2024-03-02T02:30:12;19.10;;;11.02;;
75135;SDS011;63707;52.212;9.540;2024-03-02T02:32:38;19.90;;;10.80;;
75135;SDS011;63707;52.212;9.540;2024-03-02T02:35:04;20.02;;;11.45;;
75135;SDS011;63707;52.212;9.540;2024-03-02T02:37:30;19.30;;;11.07;;
75135;SDS011;63707;52.212;9.540;2024-03-02T02:39:57;21.58;;;11.05;;
75135;SDS011;63707;52.212;9.540;2024-03-02T02:42:22;23.02;;;11.27;;
75135;SDS011;63707;52.212;9.540;2024-03-02T02:44:48;21.27;;;11.43;;
75135;SDS011;63707;52.212;9.540;2024-03-02T02:47:13;23.35;;;12.05;;
75135;SDS011;63707;52.212;9.540;2024-03-02T02:49:39;21.10;;;11.90;;
75135;SDS011;63707;52.212;9.540;2024-03-02T02:52:05;19.77;;;10.88;;
75135;SDS011;63707;52.212;9.540;2024-03-02T02:54:30;23.48;;;11.60;;
75135;SDS011;63707;52.212;9.540;2024-03-02T02:56:57;22.70;;;11.27;;
75135;SDS011;63707;52.212;9.540;2024-03-02T02:59:24;21.02;;;11.70;;
75135;SDS011;63707;52.212;9.540;2024-03-02T03:01:51;24.00;;;11.32;;
75135;SDS011;63707;52.212;9.540;2024-03-02T03:04:16;23.52;;;11.15;;
75135;SDS011;63707;52.212;9.540;2024-03-02T03:06:42;19.88;;;11.85;;
75135;SDS011;63707;52.212;9.540;2024-03-02T03:09:08;21.40;;;11.82;;
75135;SDS011;63707;52.212;9.540;2024-03-02T03:11:36;22.67;;;11.90;;
75135;SDS011;63707;52.212;9.540;2024-03-02T03:14:03;22.17;;;12.18;;
75135;SDS011;63707;52.212;9.540;2024-03-02T03:16:30;20.38;;;11.23;;
75135;SDS011;63707;52.212;9.540;2024-03-02T03:18:55;23.08;;;12.07;;
75135;SDS011;63707;52.212;9.540;2024-03-02T03:21:20;19.23;;;10.60;;
75135;SDS011;63707;52.212;9.540;2024-03-02T03:23:46;21.85;;;11.73;;
75135;SDS011;63707;52.212;9.540;2024-03-02T03:26:12;22.70;;;11.73;;
75135;SDS011;63707;52.212;9.540;2024-03-02T03:28:37;23.70;;;11.75;;
75135;SDS011;63707;52.212;9.540;2024-03-02T03:31:04;21.42;;;11.60;;
75135;SDS011;63707;52.212;9.540;2024-03-02T03:33:29;21.35;;;11.57;;
75135;SDS011;63707;52.212;9.540;2024-03-02T03:35:55;21.50;;;11.38;;
75135;SDS011;63707;52.212;9.540;2024-03-02T03:38:20;24.25;;;11.70;;
75135;SDS011;63707;52.212;9.540;2024-03-02T03:40:46;18.38;;;10.40;;
75135;SDS011;63707;52.212;9.540;2024-03-02T03:43:12;24.40;;;11.68;;
75135;SDS011;63707;52.212;9.540;2024-03-02T03:45:38;20.83;;;10.75;;
75135;SDS011;63707;52.212;9.540;2024-03-02T03:48:05;21.55;;;10.68;;
75135;SDS011;63707;52.212;9.540;2024-03-02T03:50:31;24.38;;;12.13;;
75135;SDS011;63707;52.212;9.540;2024-03-02T03:52:56;20.65;;;11.25;;
75135;SDS011;63707;52.212;9.540;2024-03-02T03:55:21;21.85;;;11.13;;
75135;SDS011;63707;52.212;9.540;2024-03-02T03:57:47;22.98;;;11.63;;
75135;SDS011;63707;52.212;9.540;2024-03-02T04:00:13;19.33;;;10.80;;
75135;SDS011;63707;52.212;9.540;2024-03-02T04:02:39;21.42;;;11.48;;
75135;SDS011;63707;52.212;9.540;2024-03-02T04:05:06;22.17;;;11.60;;
75135;SDS011;63707;52.212;9.540;2024-03-02T04:07:35;19.80;;;10.02;;
75135;SDS011;63707;52.212;9.540;2024-03-02T04:10:06;23.40;;;10.93;;
75135;SDS011;63707;52.212;9.540;2024-03-02T04:12:33;24.60;;;12.30;;
75135;SDS011;63707;52.212;9.540;2024-03-02T04:14:58;22.90;;;11.93;;
75135;SDS011;63707;52.212;9.540;2024-03-02T04:17:24;24.73;;;12.10;;
75135;SDS011;63707;52.212;9.540;2024-03-02T04:19:49;25.88;;;12.40;;
75135;SDS011;63707;52.212;9.540;2024-03-02T04:22:16;29.63;;;14.35;;
75135;SDS011;63707;52.212;9.540;2024-03-02T04:24:42;26.85;;;13.73;;
75135;SDS011;63707;52.212;9.540;2024-03-02T04:27:07;28.73;;;13.25;;
75135;SDS011;63707;52.212;9.540;2024-03-02T04:29:33;25.77;;;12.32;;
75135;SDS011;63707;52.212;9.540;2024-03-02T04:31:58;28.67;;;13.50;;
75135;SDS011;63707;52.212;9.540;2024-03-02T04:34:24;28.15;;;12.50;;
75135;SDS011;63707;52.212;9.540;2024-03-02T04:36:49;33.35;;;15.88;;
75135;SDS011;63707;52.212;9.540;2024-03-02T04:39:16;24.95;;;13.20;;
75135;SDS011;63707;52.212;9.540;2024-03-02T04:41:41;29.40;;;14.32;;
75135;SDS011;63707;52.212;9.540;2024-03-02T04:44:07;28.58;;;14.38;;
75135;SDS011;63707;52.212;9.540;2024-03-02T04:46:33;29.40;;;14.55;;
75135;SDS011;63707;52.212;9.540;2024-03-02T04:48:58;29.15;;;14.52;;
75135;SDS011;63707;52.212;9.540;2024-03-02T04:51:24;28.98;;;14.02;;
75135;SDS011;63707;52.212;9.540;2024-03-02T04:53:49;31.80;;;15.13;;
75135;SDS011;63707;52.212;9.540;2024-03-02T04:56:16;29.77;;;14.63;;
75135;SDS011;63707;52.212;9.540;2024-03-02T04:59:04;31.95;;;14.40;;
75135;SDS011;63707;52.212;9.540;2024-03-02T05:01:29;32.90;;;14.95;;
75135;SDS011;63707;52.212;9.540;2024-03-02T05:03:55;31.48;;;15.20;;
75135;SDS011;63707;52.212;9.540;2024-03-02T05:06:21;28.10;;;14.27;;
75135;SDS011;63707;52.212;9.540;2024-03-02T05:08:47;36.10;;;16.75;;
75135;SDS011;63707;52.212;9.540;2024-03-02T05:11:13;38.78;;;16.00;;
75135;SDS011;63707;52.212;9.540;2024-03-02T05:14:11;34.40;;;16.58;;
75135;SDS011;63707;52.212;9.540;2024-03-02T05:16:36;37.47;;;16.17;;
75135;SDS011;63707;52.212;9.540;2024-03-02T05:19:03;35.58;;;16.67;;
75135;SDS011;63707;52.212;9.540;2024-03-02T05:21:31;35.28;;;15.32;;
75135;SDS011;63707;52.212;9.540;2024-03-02T05:23:57;35.08;;;16.35;;
75135;SDS011;63707;52.212;9.540;2024-03-02T05:26:22;34.38;;;16.33;;
75135;SDS011;63707;52.212;9.540;2024-03-02T05:28:48;34.28;;;15.93;;
75135;SDS011;63707;52.212;9.540;2024-03-02T05:31:15;35.08;;;16.15;;
75135;SDS011;63707;52.212;9.540;2024-03-02T05:33:41;38.78;;;16.77;;
75135;SDS011;63707;52.212;9.540;2024-03-02T05:36:07;39.28;;;17.83;;
75135;SDS011;63707;52.212;9.540;2024-03-02T05:38:34;37.92;;;16.77;;
75135;SDS011;63707;52.212;9.540;2024-03-02T05:40:59;35.00;;;16.63;;
75135;SDS011;63707;52.212;9.540;2024-03-02T05:43:25;33.67;;;15.73;;
75135;SDS011;63707;52.212;9.540;2024-03-02T05:45:50;35.78;;;16.60;;
75135;SDS011;63707;52.212;9.540;2024-03-02T05:48:17;39.67;;;17.20;;
75135;SDS011;63707;52.212;9.540;2024-03-02T05:50:43;34.38;;;16.35;;
75135;SDS011;63707;52.212;9.540;2024-03-02T05:53:08;37.38;;;17.52;;
75135;SDS011;63707;52.212;9.540;2024-03-02T05:55:34;36.75;;;18.23;;
75135;SDS011;63707;52.212;9.540;2024-03-02T05:57:59;34.80;;;17.15;;
75135;SDS011;63707;52.212;9.540;2024-03-02T06:00:47;35.20;;;17.42;;
75135;SDS011;63707;52.212;9.540;2024-03-02T06:03:13;40.50;;;18.48;;
75135;SDS011;63707;52.212;9.540;2024-03-02T06:05:39;40.10;;;18.65;;
75135;SDS011;63707;52.212;9.540;2024-03-02T06:08:06;43.15;;;18.42;;
75135;SDS011;63707;52.212;9.540;2024-03-02T06:10:32;40.10;;;17.55;;
75135;SDS011;63707;52.212;9.540;2024-03-02T06:12:58;43.97;;;19.30;;
75135;SDS011;63707;52.212;9.540;2024-03-02T06:15:24;46.08;;;19.63;;
75135;SDS011;63707;52.212;9.540;2024-03-02T06:17:49;47.45;;;20.25;;
75135;SDS011;63707;52.212;9.540;2024-03-02T06:20:15;43.80;;;20.10;;
75135;SDS011;63707;52.212;9.540;2024-03-02T06:22:42;43.28;;;18.98;;
75135;SDS011;63707;52.212;9.540;2024-03-02T06:25:07;40.83;;;18.98;;
75135;SDS011;63707;52.212;9.540;2024-03-02T06:27:33;41.20;;;18.90;;
75135;SDS011;63707;52.212;9.540;2024-03-02T06:29:58;37.50;;;18.45;;
75135;SDS011;63707;52.212;9.540;2024-03-02T06:32:24;42.67;;;18.73;;
75135;SDS011;63707;52.212;9.540;2024-03-02T06:34:50;41.22;;;19.75;;
75135;SDS011;63707;52.212;9.540;2024-03-02T06:37:15;44.55;;;19.55;;
75135;SDS011;63707;52.212;9.540;2024-03-02T06:39:43;39.75;;;19.17;;
75135;SDS011;63707;52.212;9.540;2024-03-02T06:42:09;42.03;;;20.73;;
75135;SDS011;63707;52.212;9.540;2024-03-02T06:44:34;38.53;;;18.77;;
75135;SDS011;63707;52.212;9.540;2024-03-02T06:47:00;39.25;;;18.48;;
75135;SDS011;63707;52.212;9.540;2024-03-02T06:49:25;43.05;;;19.30;;
75135;SDS011;63707;52.212;9.540;2024-03-02T06:51:51;39.03;;;17.33;;
75135;SDS011;63707;52.212;9.540;2024-03-02T06:54:16;37.50;;;18.80;;
75135;SDS011;63707;52.212;9.540;2024-03-02T06:56:43;40.25;;;18.38;;
75135;SDS011;63707;52.212;9.540;2024-03-02T06:59:08;38.28;;;19.27;;
75135;SDS011;63707;52.212;9.540;2024-03-02T07:01:34;42.17;;;19.73;;
75135;SDS011;63707;52.212;9.540;2024-03-02T07:03:59;39.80;;;18.85;;
75135;SDS011;63707;52.212;9.540;2024-03-02T07:06:25;37.33;;;18.65;;
75135;SDS011;63707;52.212;9.540;2024-03-02T07:08:50;38.58;;;18.35;;
75135;SDS011;63707;52.212;9.540;2024-03-02T07:11:16;42.45;;;18.80;;
75135;SDS011;63707;52.212;9.540;2024-03-02T07:13:43;42.13;;;18.75;;
75135;SDS011;63707;52.212;9.540;2024-03-02T07:16:08;39.00;;;17.80;;
75135;SDS011;63707;52.212;9.540;2024-03-02T07:18:52;40.78;;;19.77;;
75135;SDS011;63707;52.212;9.540;2024-03-02T07:21:17;38.10;;;18.33;;
75135;SDS011;63707;52.212;9.540;2024-03-02T07:23:43;34.25;;;17.45;;
75135;SDS011;63707;52.212;9.540;2024-03-02T07:26:09;41.75;;;18.20;;
75135;SDS011;63707;52.212;9.540;2024-03-02T07:28:35;42.90;;;18.08;;
75135;SDS011;63707;52.212;9.540;2024-03-02T07:31:02;33.53;;;17.40;;
75135;SDS011;63707;52.212;9.540;2024-03-02T07:33:29;35.35;;;17.67;;
75135;SDS011;63707;52.212;9.540;2024-03-02T07:35:55;32.65;;;16.73;;
75135;SDS011;63707;52.212;9.540;2024-03-02T07:38:20;37.40;;;17.88;;
75135;SDS011;63707;52.212;9.540;2024-03-02T07:40:47;35.28;;;17.23;;
75135;SDS011;63707;52.212;9.540;2024-03-02T07:43:14;36.78;;;17.55;;
75135;SDS011;63707;52.212;9.540;2024-03-02T07:45:39;33.97;;;16.90;;
75135;SDS011;63707;52.212;9.540;2024-03-02T07:48:07;36.55;;;17.52;;
75135;SDS011;63707;52.212;9.540;2024-03-02T07:50:33;33.15;;;16.80;;
75135;SDS011;63707;52.212;9.540;2024-03-02T07:53:00;34.05;;;16.58;;
75135;SDS011;63707;52.212;9.540;2024-03-02T07:55:25;34.65;;;16.42;;
75135;SDS011;63707;52.212;9.540;2024-03-02T07:57:51;30.80;;;15.55;;
75135;SDS011;63707;52.212;9.540;2024-03-02T08:00:16;31.27;;;16.17;;
75135;SDS011;63707;52.212;9.540;2024-03-02T08:02:42;28.67;;;13.85;;
75135;SDS011;63707;52.212;9.540;2024-03-02T08:05:09;26.58;;;14.18;;
75135;SDS011;63707;52.212;9.540;2024-03-02T08:07:34;28.25;;;14.73;;
75135;SDS011;63707;52.212;9.540;2024-03-02T08:10:00;29.70;;;14.40;;
75135;SDS011;63707;52.212;9.540;2024-03-02T08:12:25;26.20;;;13.70;;
75135;SDS011;63707;52.212;9.540;2024-03-02T08:14:51;25.85;;;13.93;;
75135;SDS011;63707;52.212;9.540;2024-03-02T08:17:16;25.10;;;13.25;;
75135;SDS011;63707;52.212;9.540;2024-03-02T08:19:42;24.73;;;12.68;;
75135;SDS011;63707;52.212;9.540;2024-03-02T08:22:10;24.80;;;13.30;;
75135;SDS011;63707;52.212;9.540;2024-03-02T08:24:35;24.65;;;13.90;;
75135;SDS011;63707;52.212;9.540;2024-03-02T08:27:01;21.27;;;11.32;;
75135;SDS011;63707;52.212;9.540;2024-03-02T08:29:27;21.27;;;11.00;;
75135;SDS011;63707;52.212;9.540;2024-03-02T08:31:52;21.92;;;12.07;;
75135;SDS011;63707;52.212;9.540;2024-03-02T08:34:18;21.10;;;11.70;;
75135;SDS011;63707;52.212;9.540;2024-03-02T08:36:43;21.95;;;11.32;;
75135;SDS011;63707;52.212;9.540;2024-03-02T08:39:10;21.63;;;10.23;;
75135;SDS011;63707;52.212;9.540;2024-03-02T08:41:40;18.00;;;10.45;;
75135;SDS011;63707;52.212;9.540;2024-03-02T08:44:05;19.98;;;10.77;;
75135;SDS011;63707;52.212;9.540;2024-03-02T08:46:31;19.83;;;10.90;;
75135;SDS011;63707;52.212;9.540;2024-03-02T08:48:57;18.30;;;10.25;;
75135;SDS011;63707;52.212;9.540;2024-03-02T08:51:22;18.50;;;9.98;;
75135;SDS011;63707;52.212;9.540;2024-03-02T08:53:48;16.95;;;9.48;;
75135;SDS011;63707;52.212;9.540;2024-03-02T08:56:14;19.05;;;9.98;;
75135;SDS011;63707;52.212;9.540;2024-03-02T08:58:41;21.17;;;10.52;;
75135;SDS011;63707;52.212;9.540;2024-03-02T09:01:06;16.38;;;9.32;;
75135;SDS011;63707;52.212;9.540;2024-03-02T09:03:33;16.30;;;8.90;;
75135;SDS011;63707;52.212;9.540;2024-03-02T09:05:58;17.27;;;9.32;;
75135;SDS011;63707;52.212;9.540;2024-03-02T09:08:24;21.00;;;9.38;;
75135;SDS011;63707;52.212;9.540;2024-03-02T09:10:49;15.38;;;8.88;;
75135;SDS011;63707;52.212;9.540;2024-03-02T09:13:16;16.02;;;8.63;;
75135;SDS011;63707;52.212;9.540;2024-03-02T09:15:42;15.98;;;9.07;;
75135;SDS011;63707;52.212;9.540;2024-03-02T09:18:09;18.40;;;9.45;;
75135;SDS011;63707;52.212;9.540;2024-03-02T09:20:34;16.65;;;8.70;;
75135;SDS011;63707;52.212;9.540;2024-03-02T09:23:00;17.42;;;9.30;;
75135;SDS011;63707;52.212;9.540;2024-03-02T09:25:25;16.48;;;9.40;;
75135;SDS011;63707;52.212;9.540;2024-03-02T09:27:51;17.88;;;9.35;;
75135;SDS011;63707;52.212;9.540;2024-03-02T09:30:18;19.42;;;9.82;;
75135;SDS011;63707;52.212;9.540;2024-03-02T09:32:43;18.67;;;9.32;;
75135;SDS011;63707;52.212;9.540;2024-03-02T09:35:09;16.00;;;8.82;;
75135;SDS011;63707;52.212;9.540;2024-03-02T09:37:34;18.85;;;8.93;;
75135;SDS011;63707;52.212;9.540;2024-03-02T09:40:00;17.20;;;9.23;;
75135;SDS011;63707;52.212;9.540;2024-03-02T09:42:25;14.43;;;8.40;;
75135;SDS011;63707;52.212;9.540;2024-03-02T09:44:51;13.90;;;7.82;;
75135;SDS011;63707;52.212;9.540;2024-03-02T09:47:18;17.02;;;9.07;;
75135;SDS011;63707;52.212;9.540;2024-03-02T09:49:43;15.48;;;8.73;;
75135;SDS011;63707;52.212;9.540;2024-03-02T09:52:09;20.25;;;8.85;;
75135;SDS011;63707;52.212;9.540;2024-03-02T09:54:35;11.35;;;7.10;;
75135;SDS011;63707;52.212;9.540;2024-03-02T09:57:01;12.93;;;7.60;;
75135;SDS011;63707;52.212;9.540;2024-03-02T09:59:27;16.13;;;8.05;;
75135;SDS011;63707;52.212;9.540;2024-03-02T10:01:57;12.73;;;7.55;;
75135;SDS011;63707;52.212;9.540;2024-03-02T10:04:25;16.35;;;8.40;;
75135;SDS011;63707;52.212;9.540;2024-03-02T10:06:51;11.75;;;6.47;;
75135;SDS011;63707;52.212;9.540;2024-03-02T10:09:26;12.57;;;7.13;;
75135;SDS011;63707;52.212;9.540;2024-03-02T10:11:52;13.88;;;7.45;;
75135;SDS011;63707;52.212;9.540;2024-03-02T10:14:17;15.57;;;6.60;;
75135;SDS011;63707;52.212;9.540;2024-03-02T10:16:43;12.55;;;6.82;;
75135;SDS011;63707;52.212;9.540;2024-03-02T10:19:15;12.90;;;7.38;;
75135;SDS011;63707;52.212;9.540;2024-03-02T10:21:45;10.18;;;6.38;;
75135;SDS011;63707;52.212;9.540;2024-03-02T10:24:11;10.98;;;6.95;;
75135;SDS011;63707;52.212;9.540;2024-03-02T10:26:37;13.07;;;6.60;;
75135;SDS011;63707;52.212;9.540;2024-03-02T10:29:03;15.43;;;7.03;;
75135;SDS011;63707;52.212;9.540;2024-03-02T10:31:28;13.57;;;6.53;;
75135;SDS011;63707;52.212;9.540;2024-03-02T10:33:54;15.13;;;5.82;;
75135;SDS011;63707;52.212;9.540;2024-03-02T10:36:20;10.98;;;6.38;;
75135;SDS011;63707;52.212;9.540;2024-03-02T10:38:47;11.10;;;6.32;;
75135;SDS011;63707;52.212;9.540;2024-03-02T10:41:13;12.82;;;6.25;;
75135;SDS011;63707;52.212;9.540;2024-03-02T10:43:42;11.13;;;6.45;;
75135;SDS011;63707;52.212;9.540;2024-03-02T10:46:08;11.75;;;6.55;;
75135;SDS011;63707;52.212;9.540;2024-03-02T10:48:33;11.82;;;6.70;;
75135;SDS011;63707;52.212;9.540;2024-03-02T10:51:01;12.70;;;7.03;;
75135;SDS011;63707;52.212;9.540;2024-03-02T10:53:27;13.13;;;6.75;;
75135;SDS011;63707;52.212;9.540;2024-03-02T10:55:55;10.05;;;6.20;;
75135;SDS011;63707;52.212;9.540;2024-03-02T11:00:56;10.63;;;5.47;;
75135;SDS011;63707;52.212;9.540;2024-03-02T11:03:25;9.07;;;5.05;;
75135;SDS011;63707;52.212;9.540;2024-03-02T11:05:50;7.70;;;4.90;;
75135;SDS011;63707;52.212;9.540;2024-03-02T11:08:17;69.00;;;9.20;;
75135;SDS011;63707;52.212;9.540;2024-03-02T11:10:45;47.33;;;8.00;;
75135;SDS011;63707;52.212;9.540;2024-03-02T11:13:19;9.63;;;4.93;;
75135;SDS011;63707;52.212;9.540;2024-03-02T11:15:47;62.40;;;9.57;;
75135;SDS011;63707;52.212;9.540;2024-03-02T11:18:13;12.90;;;4.45;;
75135;SDS011;63707;52.212;9.540;2024-03-02T11:20:40;35.58;;;7.38;;
75135;SDS011;63707;52.212;9.540;2024-03-02T11:23:07;11.55;;;4.93;;
75135;SDS011;63707;52.212;9.540;2024-03-02T11:25:34;10.13;;;5.13;;
75135;SDS011;63707;52.212;9.540;2024-03-02T11:28:03;5.78;;;3.60;;
75135;SDS011;63707;52.212;9.540;2024-03-02T11:33:16;24.45;;;6.30;;
75135;SDS011;63707;52.212;9.540;2024-03-02T11:35:48;36.50;;;5.97;;
75135;SDS011;63707;52.212;9.540;2024-03-02T11:38:14;6.65;;;3.38;;
75135;SDS011;63707;52.212;9.540;2024-03-02T11:40:40;6.93;;;3.58;;
75135;SDS011;63707;52.212;9.540;2024-03-02T11:43:06;7.38;;;3.85;;
75135;SDS011;63707;52.212;9.540;2024-03-02T11:45:33;5.28;;;3.58;;
75135;SDS011;63707;52.212;9.540;2024-03-02T11:48:00;11.65;;;3.70;;
75135;SDS011;63707;52.212;9.540;2024-03-02T11:50:28;6.90;;;3.08;;
75135;SDS011;63707;52.212;9.540;2024-03-02T11:52:54;11.57;;;7.85;;
75135;SDS011;63707;52.212;9.540;2024-03-02T11:55:21;10.57;;;5.38;;
75135;SDS011;63707;52.212;9.540;2024-03-02T11:57:46;4.75;;;3.20;;
75135;SDS011;63707;52.212;9.540;2024-03-02T12:00:16;7.97;;;3.45;;
75135;SDS011;63707;52.212;9.540;2024-03-02T12:02:42;6.25;;;3.92;;
75135;SDS011;63707;52.212;9.540;2024-03-02T12:05:14;13.75;;;8.02;;
75135;SDS011;63707;52.212;9.540;2024-03-02T12:07:39;17.83;;;8.43;;
75135;SDS011;63707;52.212;9.540;2024-03-02T12:10:05;12.63;;;8.38;;
75135;SDS011;63707;52.212;9.540;2024-03-02T12:12:31;14.23;;;9.30;;
75135;SDS011;63707;52.212;9.540;2024-03-02T12:14:56;10.38;;;6.43;;
75135;SDS011;63707;52.212;9.540;2024-03-02T12:17:22;9.18;;;6.63;;
75135;SDS011;63707;52.212;9.540;2024-03-02T12:19:48;12.98;;;8.25;;
75135;SDS011;63707;52.212;9.540;2024-03-02T12:22:15;12.40;;;8.65;;
75135;SDS011;63707;52.212;9.540;2024-03-02T12:24:41;13.77;;;8.35;;
75135;SDS011;63707;52.212;9.540;2024-03-02T12:27:10;12.57;;;8.05;;
75135;SDS011;63707;52.212;9.540;2024-03-02T12:29:37;11.02;;;7.25;;
75135;SDS011;63707;52.212;9.540;2024-03-02T12:32:04;11.57;;;7.05;;
75135;SDS011;63707;52.212;9.540;2024-03-02T12:34:31;9.57;;;5.78;;
75135;SDS011;63707;52.212;9.540;2024-03-02T12:36:57;9.63;;;5.93;;
75135;SDS011;63707;52.212;9.540;2024-03-02T12:39:24;11.18;;;7.05;;
75135;SDS011;63707;52.212;9.540;2024-03-02T12:41:49;7.13;;;4.90;;
75135;SDS011;63707;52.212;9.540;2024-03-02T12:44:15;8.52;;;4.90;;
75135;SDS011;63707;52.212;9.540;2024-03-02T12:46:41;7.25;;;4.68;;
75135;SDS011;63707;52.212;9.540;2024-03-02T12:49:08;6.95;;;4.85;;
75135;SDS011;63707;52.212;9.540;2024-03-02T12:51:38;5.88;;;4.28;;
75135;SDS011;63707;52.212;9.540;2024-03-02T12:54:05;7.07;;;4.80;;
75135;SDS011;63707;52.212;9.540;2024-03-02T12:56:33;6.72;;;4.45;;
75135;SDS011;63707;52.212;9.540;2024-03-02T12:58:59;7.25;;;4.80;;
75135;SDS011;63707;52.212;9.540;2024-03-02T13:01:24;8.68;;;5.45;;
75135;SDS011;63707;52.212;9.540;2024-03-02T13:03:50;8.45;;;5.20;;
75135;SDS011;63707;52.212;9.540;2024-03-02T13:06:17;9.48;;;5.88;;
75135;SDS011;63707;52.212;9.540;2024-03-02T13:08:44;8.20;;;5.38;;
75135;SDS011;63707;52.212;9.540;2024-03-02T13:11:10;8.05;;;5.57;;
75135;SDS011;63707;52.212;9.540;2024-03-02T13:13:37;8.55;;;5.63;;
75135;SDS011;63707;52.212;9.540;2024-03-02T13:16:04;10.40;;;6.30;;
75135;SDS011;63707;52.212;9.540;2024-03-02T13:18:33;10.63;;;6.43;;
75135;SDS011;63707;52.212;9.540;2024-03-02T13:20:58;10.40;;;6.50;;
75135;SDS011;63707;52.212;9.540;2024-03-02T13:23:24;9.65;;;6.53;;
75135;SDS011;63707;52.212;9.540;2024-03-02T13:25:49;8.15;;;5.40;;
75135;SDS011;63707;52.212;9.540;2024-03-02T13:28:15;8.20;;;5.60;;
75135;SDS011;63707;52.212;9.540;2024-03-02T13:30:42;7.38;;;5.13;;
75135;SDS011;63707;52.212;9.540;2024-03-02T13:33:07;9.07;;;5.40;;
75135;SDS011;63707;52.212;9.540;2024-03-02T13:35:33;6.22;;;4.28;;
75135;SDS011;63707;52.212;9.540;2024-03-02T13:37:58;8.35;;;4.65;;
75135;SDS011;63707;52.212;9.540;2024-03-02T13:40:24;6.85;;;4.57;;
75135;SDS011;63707;52.212;9.540;2024-03-02T13:42:49;7.38;;;4.75;;
75135;SDS011;63707;52.212;9.540;2024-03-02T13:45:16;6.38;;;4.07;;
75135;SDS011;63707;52.212;9.540;2024-03-02T13:47:44;7.30;;;4.38;;
75135;SDS011;63707;52.212;9.540;2024-03-02T13:50:09;8.60;;;4.63;;
75135;SDS011;63707;52.212;9.540;2024-03-02T13:52:35;10.52;;;6.35;;
75135;SDS011;63707;52.212;9.540;2024-03-02T13:55:01;8.75;;;5.82;;
75135;SDS011;63707;52.212;9.540;2024-03-02T13:57:26;9.07;;;5.72;;
75135;SDS011;63707;52.212;9.540;2024-03-02T13:59:53;6.85;;;4.22;;
75135;SDS011;63707;52.212;9.540;2024-03-02T14:02:19;8.73;;;4.45;;
75135;SDS011;63707;52.212;9.540;2024-03-02T14:04:47;5.63;;;3.75;;
75135;SDS011;63707;52.212;9.540;2024-03-02T14:07:14;5.80;;;3.72;;
75135;SDS011;63707;52.212;9.540;2024-03-02T14:09:39;6.30;;;4.10;;
75135;SDS011;63707;52.212;9.540;2024-03-02T14:12:05;12.52;;;4.57;;
75135;SDS011;63707;52.212;9.540;2024-03-02T14:14:31;6.47;;;4.20;;
75135;SDS011;63707;52.212;9.540;2024-03-02T14:16:57;6.07;;;3.95;;
75135;SDS011;63707;52.212;9.540;2024-03-02T14:19:29;12.23;;;6.63;;
75135;SDS011;63707;52.212;9.540;2024-03-02T14:21:56;11.38;;;6.45;;
75135;SDS011;63707;52.212;9.540;2024-03-02T14:24:21;7.22;;;4.75;;
75135;SDS011;63707;52.212;9.540;2024-03-02T14:26:51;9.80;;;5.65;;
75135;SDS011;63707;52.212;9.540;2024-03-02T14:29:16;15.07;;;6.80;;
75135;SDS011;63707;52.212;9.540;2024-03-02T14:31:42;9.82;;;6.03;;